createdAt,value
2016-06-03T09:09:46.140Z,48
2016-06-03T09:10:47.018Z,52
2016-06-03T09:11:46.145Z,48
2016-06-03T09:12:46.179Z,52
2016-06-03T09:13:46.229Z,52
2016-06-03T09:14:46.263Z,56
2016-06-03T09:15:46.718Z,56
2016-06-03T09:16:46.346Z,52
2016-06-03T09:17:46.615Z,52
2016-06-03T09:18:46.368Z,56
2016-06-03T09:19:46.432Z,52
2016-06-03T09:20:46.451Z,52
2016-06-03T09:21:46.500Z,52
2016-06-03T09:22:46.534Z,48
2016-06-03T09:23:46.584Z,48
2016-06-03T09:24:46.649Z,44
2016-06-03T09:25:47.526Z,44
2016-06-03T09:26:46.685Z,40
2016-06-03T09:27:46.720Z,44
2016-06-03T09:28:46.737Z,40
2016-06-03T09:29:46.771Z,44
2016-06-03T09:30:46.822Z,36
2016-06-03T09:31:46.683Z,36
2016-06-03T09:32:46.888Z,36
2016-06-03T09:33:46.922Z,36
2016-06-03T09:34:46.958Z,36
2016-06-03T09:35:46.991Z,36
2016-06-03T09:36:47.025Z,32
2016-06-03T09:37:47.058Z,32
2016-06-03T09:38:47.093Z,32
2016-06-03T09:39:47.267Z,36
2016-06-03T09:40:47.254Z,36
2016-06-03T09:41:47.210Z,32
2016-06-03T09:42:47.244Z,32
2016-06-03T09:43:47.263Z,32
2016-06-03T09:44:47.313Z,32
2016-06-03T09:45:47.346Z,40
2016-06-03T09:46:47.379Z,44
2016-06-03T09:47:47.430Z,44
2016-06-03T09:48:47.462Z,44
2016-06-03T09:49:47.498Z,44
2016-06-03T09:50:47.562Z,44
2016-06-03T09:51:47.565Z,48
2016-06-03T09:52:47.599Z,48
2016-06-03T09:53:47.648Z,48
2016-06-03T09:54:48.511Z,56
2016-06-03T09:55:47.717Z,60
2016-06-03T09:56:47.734Z,60
2016-06-03T09:57:47.784Z,52
2016-06-03T09:58:47.817Z,48
2016-06-03T09:59:47.867Z,52
2016-06-03T10:00:47.887Z,52
2016-06-03T10:01:47.936Z,48
2016-06-03T10:02:47.954Z,52
2016-06-03T10:03:47.831Z,60
2016-06-03T10:04:48.038Z,68
2016-06-03T10:05:48.055Z,64
2016-06-03T10:06:48.106Z,60
2016-06-03T10:07:48.139Z,68
2016-06-03T10:08:48.173Z,56
2016-06-03T10:09:48.427Z,72
2016-06-03T10:10:48.116Z,64
2016-06-03T10:11:48.275Z,340
2016-06-03T10:12:48.325Z,332
2016-06-03T10:13:48.358Z,324
2016-06-03T10:14:48.393Z,364
2016-06-03T10:15:48.442Z,376
2016-06-03T10:16:48.460Z,364
2016-06-03T10:17:48.510Z,340
2016-06-03T10:18:48.544Z,336
2016-06-03T10:19:48.562Z,328
2016-06-03T10:20:48.581Z,328
2016-06-03T11:19:11.911Z,16
2016-06-03T11:20:12.210Z,8
2016-06-03T11:21:12.229Z,32
2016-06-03T11:25:04.893Z,0
2016-06-03T11:26:05.411Z,16
2016-06-03T11:28:46.389Z,24
2016-06-03T11:29:46.423Z,24
2016-06-03T11:30:46.456Z,24
2016-06-03T11:31:46.506Z,28
2016-06-03T11:32:46.555Z,40
2016-06-03T11:33:46.589Z,48
2016-06-03T11:34:46.592Z,52
2016-06-03T11:35:46.642Z,52
2016-06-03T11:36:46.676Z,56
2016-06-03T11:37:46.725Z,60
2016-06-03T11:38:46.775Z,48
2016-06-03T11:39:47.372Z,60
2016-06-03T11:40:46.702Z,40
2016-06-03T11:41:46.924Z,60
2016-06-03T11:42:46.911Z,32
2016-06-03T11:43:46.960Z,28
2016-06-03T11:44:46.978Z,56
2016-06-03T11:45:46.887Z,56
2016-06-03T11:46:47.077Z,60
2016-06-03T11:47:47.096Z,60
2016-06-03T11:48:47.130Z,56
2016-06-03T11:49:47.180Z,56
2016-06-03T11:50:47.244Z,52
2016-06-03T11:51:47.247Z,56
2016-06-03T11:52:47.312Z,56
2016-06-03T11:53:47.346Z,56
2016-06-03T11:54:47.723Z,56
2016-06-03T11:55:47.945Z,56
2016-06-03T11:56:47.448Z,28
2016-06-03T11:57:47.498Z,24
2016-06-03T11:58:47.360Z,24
2016-06-03T11:59:47.550Z,24
2016-06-03T12:00:47.615Z,24
2016-06-03T12:01:47.649Z,28
2016-06-03T12:02:47.683Z,44
2016-06-03T12:03:47.733Z,44
2016-06-03T12:04:47.766Z,28
2016-06-03T12:05:47.785Z,32
2016-06-03T12:06:47.834Z,52
2016-06-03T12:07:47.868Z,40
2016-06-03T12:08:47.917Z,44
2016-06-03T12:09:47.952Z,48
2016-06-03T12:10:48.001Z,48
2016-06-03T12:11:48.036Z,52
2016-06-03T12:12:48.053Z,48
2016-06-03T12:13:48.088Z,48
2016-06-03T12:14:48.153Z,52
2016-06-03T12:15:48.186Z,48
2016-06-03T12:16:48.236Z,44
2016-06-03T12:17:48.238Z,48
2016-06-03T12:18:48.320Z,52
2016-06-03T12:19:48.385Z,48
2016-06-03T12:20:48.357Z,48
2016-06-03T12:21:48.390Z,52
2016-06-03T12:22:48.455Z,52
2016-06-03T12:23:48.474Z,52
2016-06-03T12:24:49.102Z,52
2016-06-03T12:25:48.901Z,36
2016-06-03T12:26:48.591Z,40
2016-06-03T12:27:48.625Z,28
2016-06-03T12:28:48.690Z,48
2016-06-03T12:29:48.709Z,48
2016-06-03T12:30:48.587Z,52
2016-06-03T12:31:48.776Z,44
2016-06-03T12:32:48.826Z,20
2016-06-03T12:33:48.860Z,24
2016-06-03T12:34:48.738Z,48
2016-06-03T12:35:48.928Z,52
2016-06-03T12:36:48.978Z,44
2016-06-03T12:37:49.027Z,48
2016-06-03T12:38:49.045Z,48
2016-06-03T12:39:49.486Z,40
2016-06-03T12:40:49.925Z,48
2016-06-03T12:41:49.163Z,48
2016-06-03T12:42:49.197Z,48
2016-06-03T12:43:49.231Z,44
2016-06-03T12:44:49.280Z,48
2016-06-03T12:45:49.314Z,40
2016-06-03T12:46:49.349Z,44
2016-06-03T12:47:49.382Z,48
2016-06-03T12:48:49.432Z,44
2016-06-03T12:49:49.466Z,48
2016-06-03T12:50:49.499Z,24
2016-06-03T12:51:49.549Z,44
2016-06-03T12:52:49.583Z,48
2016-06-03T12:53:49.648Z,44
2016-06-03T12:54:49.651Z,48
2016-06-03T12:55:50.231Z,48
2016-06-03T12:56:49.750Z,48
2016-06-03T12:57:49.768Z,44
2016-06-03T12:58:49.818Z,44
2016-06-03T12:59:49.868Z,44
2016-06-03T13:00:49.887Z,44
2016-06-03T13:01:49.920Z,44
2016-06-03T13:02:49.969Z,44
2016-06-03T13:03:50.003Z,44
2016-06-03T13:04:50.037Z,44
2016-06-03T13:05:50.071Z,40
2016-06-03T13:06:50.121Z,44
2016-06-03T13:07:50.156Z,40
2016-06-03T13:08:50.189Z,40
2016-06-03T13:09:50.253Z,44
2016-06-03T13:10:50.773Z,40
2016-06-03T13:11:50.306Z,44
2016-06-03T13:12:50.339Z,40
2016-06-03T13:13:50.374Z,40
2016-06-03T13:14:50.424Z,32
2016-06-03T13:15:50.458Z,36
2016-06-03T13:16:50.491Z,40
2016-06-03T13:17:50.541Z,44
2016-06-03T13:18:50.575Z,44
2016-06-03T13:19:50.608Z,44
2016-06-03T13:20:50.643Z,40
2016-06-03T13:21:50.693Z,40
2016-06-03T13:22:50.571Z,40
2016-06-03T13:23:50.760Z,40
2016-06-03T13:24:50.810Z,36
2016-06-03T13:25:50.843Z,32
2016-06-03T13:26:50.893Z,32
2016-06-03T13:27:50.912Z,36
2016-06-03T13:28:50.946Z,36
2016-06-03T13:29:53.230Z,36
2016-06-03T13:30:51.060Z,36
2016-06-03T13:31:51.063Z,36
2016-06-03T13:32:51.097Z,36
2016-06-03T13:33:51.146Z,32
2016-06-03T13:34:51.181Z,36
2016-06-03T13:35:51.276Z,36
2016-06-03T13:36:52.421Z,36
2016-06-03T13:37:51.314Z,36
2016-06-03T13:38:51.379Z,32
2016-06-03T13:39:51.834Z,36
2016-06-03T13:40:50.978Z,36
2016-06-03T13:41:51.433Z,40
2016-06-03T13:42:51.327Z,36
2016-06-03T13:43:51.517Z,36
2016-06-03T13:44:53.894Z,36
2016-06-03T13:45:51.601Z,40
2016-06-03T13:46:51.635Z,36
2016-06-03T13:47:51.746Z,36
2016-06-03T13:48:51.703Z,36
2016-06-03T13:49:53.049Z,36
2016-06-03T13:50:51.771Z,36
2016-06-03T13:51:51.819Z,36
2016-06-03T13:52:51.869Z,36
2016-06-03T13:53:51.904Z,32
2016-06-03T13:54:54.125Z,36
2016-06-03T13:55:51.971Z,32
2016-06-03T13:56:52.005Z,36
2016-06-03T13:57:52.054Z,36
2016-06-03T13:58:51.932Z,36
2016-06-03T13:59:54.529Z,32
2016-06-03T14:00:52.172Z,16
2016-06-03T14:01:52.191Z,28
2016-06-03T14:02:52.224Z,32
2016-06-03T14:03:52.290Z,36
2016-06-03T14:04:52.308Z,36
2016-06-03T14:05:52.357Z,36
2016-06-03T14:06:52.392Z,36
2016-06-03T14:07:52.426Z,36
2016-06-03T14:08:52.460Z,36
2016-06-03T14:09:54.117Z,16
2016-06-03T14:10:53.403Z,20
2016-06-03T14:11:52.561Z,32
2016-06-03T14:12:52.611Z,32
2016-06-03T14:13:52.644Z,32
2016-06-03T14:14:53.131Z,32
2016-06-03T14:15:52.556Z,36
2016-06-03T14:16:52.778Z,36
2016-06-03T14:17:52.796Z,36
2016-06-03T14:18:52.846Z,36
2016-06-03T14:19:52.879Z,20
2016-06-03T14:20:52.898Z,32
2016-06-03T14:21:52.932Z,28
2016-06-03T14:22:52.966Z,16
2016-06-03T14:23:53.500Z,20
2016-06-03T14:24:54.002Z,32
2016-06-03T14:25:52.958Z,20
2016-06-03T14:26:53.133Z,32
2016-06-03T14:27:53.370Z,16
2016-06-03T14:28:53.201Z,32
2016-06-03T14:29:57.140Z,32
2016-06-03T14:30:53.519Z,32
2016-06-03T14:31:53.334Z,32
2016-06-03T14:32:53.367Z,28
2016-06-03T14:33:53.417Z,20
2016-06-03T14:34:53.982Z,20
2016-06-03T14:35:53.360Z,16
2016-06-03T14:36:53.520Z,20
2016-06-03T14:37:53.568Z,32
2016-06-03T14:38:53.603Z,36
2016-06-03T14:39:54.683Z,36
2016-06-03T14:40:54.390Z,16
2016-06-03T14:41:53.704Z,20
2016-06-03T14:42:53.910Z,36
2016-06-03T14:43:53.867Z,36
2016-06-03T14:44:54.619Z,32
2016-06-03T14:45:53.872Z,32
2016-06-03T14:46:53.906Z,32
2016-06-03T14:47:53.939Z,28
2016-06-03T14:48:53.817Z,32
2016-06-03T14:49:56.523Z,32
2016-06-03T14:50:54.057Z,32
2016-06-03T14:51:54.091Z,28
2016-06-03T14:52:54.124Z,32
2016-06-03T14:53:54.158Z,32
2016-06-03T14:54:57.693Z,24
2016-06-03T14:55:54.633Z,32
2016-06-03T14:56:54.276Z,32
2016-06-03T14:57:54.294Z,28
2016-06-03T14:58:54.406Z,32
2016-06-03T14:59:57.252Z,32
2016-06-03T15:00:54.427Z,32
2016-06-03T15:01:54.462Z,32
2016-06-03T15:02:54.495Z,32
2016-06-03T15:03:54.530Z,32
2016-06-03T15:04:57.657Z,32
2016-06-03T15:05:54.659Z,28
2016-06-03T15:06:54.506Z,24
2016-06-03T15:07:54.711Z,16
2016-06-03T15:08:54.761Z,16
2016-06-03T15:09:55.546Z,32
2016-06-03T15:10:55.204Z,28
2016-06-03T15:11:54.942Z,20
2016-06-03T15:12:54.866Z,32
2016-06-03T15:13:54.915Z,32
2016-06-03T15:14:56.793Z,28
2016-06-03T15:15:54.984Z,32
2016-06-03T15:16:55.017Z,32
2016-06-03T15:17:54.926Z,32
2016-06-03T15:18:55.116Z,32
2016-06-03T15:19:57.666Z,28
2016-06-03T15:20:55.200Z,28
2016-06-03T15:21:55.640Z,28
2016-06-03T15:22:55.736Z,28
2016-06-03T15:23:55.286Z,32
2016-06-03T15:24:55.914Z,28
2016-06-03T15:25:55.432Z,16
2016-06-03T15:26:55.435Z,28
2016-06-03T15:27:55.453Z,28
2016-06-03T15:28:55.503Z,28
2016-06-03T15:29:55.537Z,28
2016-06-03T15:30:55.571Z,28
2016-06-03T15:31:55.604Z,32
2016-06-03T15:32:55.638Z,28
2016-06-03T15:33:55.688Z,28
2016-06-03T15:34:57.457Z,20
2016-06-03T15:35:55.771Z,24
2016-06-03T15:36:55.806Z,20
2016-06-03T15:37:55.824Z,20
2016-06-03T15:38:55.718Z,28
2016-06-03T15:39:58.345Z,28
2016-06-03T15:40:55.942Z,28
2016-06-03T15:41:55.990Z,28
2016-06-03T15:42:56.025Z,20
2016-06-03T15:43:56.074Z,20
2016-06-03T15:44:56.093Z,24
2016-06-03T15:45:56.111Z,20
2016-06-03T15:46:56.175Z,24
2016-06-03T15:47:56.211Z,20
2016-06-03T15:48:56.276Z,16
2016-06-03T15:49:58.887Z,16
2016-06-03T15:50:56.328Z,28
2016-06-03T15:51:56.392Z,20
2016-06-03T15:52:56.397Z,16
2016-06-03T15:53:56.473Z,16
2016-06-03T15:54:56.875Z,16
2016-06-03T15:55:57.949Z,16
2016-06-03T15:56:56.650Z,16
2016-06-03T15:57:56.722Z,20
2016-06-03T15:58:56.765Z,24
2016-06-03T15:59:59.449Z,20
2016-06-03T16:00:56.867Z,28
2016-06-03T16:01:56.878Z,24
2016-06-03T16:02:56.968Z,24
2016-06-03T16:03:57.037Z,20
2016-06-03T16:04:59.026Z,24
2016-06-03T16:05:57.079Z,24
2016-06-03T16:06:57.116Z,24
2016-06-03T16:07:57.168Z,24
2016-06-03T16:08:57.220Z,20
2016-06-03T16:09:59.020Z,20
2016-06-03T16:10:57.587Z,16
2016-06-03T16:11:57.325Z,16
2016-06-03T16:12:57.360Z,12
2016-06-03T16:13:57.394Z,12
2016-06-03T16:14:59.319Z,12
2016-06-03T16:15:57.463Z,12
2016-06-03T16:16:57.513Z,12
2016-06-03T16:17:57.563Z,12
2016-06-03T16:18:57.628Z,16
2016-06-03T16:19:59.725Z,8
2016-06-03T16:20:57.665Z,12
2016-06-03T16:21:57.700Z,12
2016-06-03T16:22:57.735Z,16
2016-06-03T16:23:57.768Z,12
2016-06-03T16:25:00.474Z,12
2016-06-03T16:25:57.962Z,16
2016-06-03T16:26:57.901Z,12
2016-06-03T16:27:57.935Z,8
2016-06-03T16:28:57.970Z,12
2016-06-03T16:30:00.565Z,16
2016-06-03T16:30:58.037Z,16
2016-06-03T16:31:58.086Z,16
2016-06-03T16:32:58.120Z,20
2016-06-03T16:33:58.155Z,20
2016-06-03T16:34:59.610Z,20
2016-06-03T16:35:58.239Z,16
2016-06-03T16:36:58.273Z,20
2016-06-03T16:37:58.321Z,20
2016-06-03T16:38:58.339Z,16
2016-06-03T16:39:59.328Z,20
2016-06-03T16:40:58.283Z,20
2016-06-03T16:41:58.457Z,16
2016-06-03T16:42:58.508Z,16
2016-06-03T16:43:58.541Z,20
2016-06-03T16:45:00.372Z,16
2016-06-03T16:45:58.594Z,16
2016-06-03T16:46:58.643Z,20
2016-06-03T16:47:58.676Z,16
2016-06-03T16:48:58.726Z,16
2016-06-03T16:50:01.276Z,20
2016-06-03T16:50:58.810Z,16
2016-06-03T16:51:58.813Z,16
2016-06-03T16:52:58.877Z,16
2016-06-03T16:53:58.912Z,16
2016-06-03T16:54:58.976Z,16
2016-06-03T16:55:59.635Z,16
2016-06-03T16:56:59.013Z,16
2016-06-03T16:57:59.125Z,16
2016-06-03T16:58:59.097Z,12
2016-06-03T16:59:59.740Z,16
2016-06-03T17:00:59.023Z,12
2016-06-03T17:01:59.231Z,12
2016-06-03T17:02:59.264Z,12
2016-06-03T17:03:59.329Z,12
2016-06-03T17:05:00.363Z,12
2016-06-03T17:05:59.381Z,16
2016-06-03T17:06:59.400Z,16
2016-06-03T17:07:59.449Z,16
2016-06-03T17:08:59.499Z,8
2016-06-03T17:10:00.080Z,16
2016-06-03T17:10:59.691Z,12
2016-06-03T17:11:59.600Z,12
2016-06-03T17:12:59.635Z,12
2016-06-03T17:13:59.668Z,12
2016-06-03T17:14:59.718Z,16
2016-06-03T17:15:59.752Z,16
2016-06-03T17:16:59.785Z,12
2016-06-03T17:17:59.835Z,16
2016-06-03T17:18:59.869Z,12
2016-06-03T17:20:00.138Z,12
2016-06-03T17:20:59.938Z,12
2016-06-03T17:21:59.815Z,12
2016-06-03T17:23:00.021Z,8
2016-06-03T17:24:00.054Z,8
2016-06-03T17:25:00.979Z,8
2016-06-03T17:26:00.076Z,12
2016-06-03T17:27:00.172Z,12
2016-06-03T17:28:00.221Z,8
2016-06-03T17:29:00.240Z,8
2016-06-03T17:30:01.946Z,8
2016-06-03T17:31:00.308Z,8
2016-06-03T17:32:00.357Z,8
2016-06-03T17:33:00.392Z,8
2016-06-03T17:34:00.425Z,8
2016-06-03T17:35:04.741Z,8
2016-06-03T17:36:00.509Z,8
2016-06-03T17:37:00.543Z,12
2016-06-03T17:38:00.593Z,8
2016-06-03T17:39:00.626Z,8
2016-06-03T17:40:02.066Z,8
2016-06-03T17:41:01.053Z,8
2016-06-03T17:42:00.994Z,8
2016-06-03T17:43:00.761Z,8
2016-06-03T17:44:00.827Z,8
2016-06-03T17:45:02.517Z,8
2016-06-03T17:46:00.724Z,8
2016-06-03T17:47:00.788Z,8
2016-06-03T17:48:00.807Z,8
2016-06-03T17:49:01.028Z,8
2016-06-03T17:50:01.063Z,12
2016-06-03T17:51:00.924Z,8
2016-06-03T17:52:01.161Z,8
2016-06-03T17:53:01.179Z,8
2016-06-03T17:54:01.026Z,8
2016-06-03T17:55:01.232Z,8
2016-06-03T17:56:02.188Z,8
2016-06-03T17:57:01.565Z,8
2016-06-03T17:58:01.334Z,8
2016-06-03T17:59:01.383Z,8
2016-06-03T18:00:01.276Z,4
2016-06-03T18:01:01.357Z,4
2016-06-03T18:02:01.501Z,8
2016-06-03T18:03:01.535Z,4
2016-06-03T18:04:01.397Z,4
2016-06-03T18:05:01.602Z,8
2016-06-03T18:06:01.636Z,8
2016-06-03T18:07:01.671Z,8
2016-06-03T18:08:01.611Z,8
2016-06-03T18:09:01.753Z,4
2016-06-03T18:10:01.788Z,8
2016-06-03T18:11:01.712Z,4
2016-06-03T18:12:01.730Z,8
2016-06-03T18:13:01.905Z,4
2016-06-03T18:14:01.783Z,8
2016-06-03T18:15:02.005Z,4
2016-06-03T18:16:02.022Z,4
2016-06-03T18:17:02.057Z,4
2016-06-03T18:18:02.091Z,4
2016-06-03T18:19:01.969Z,4
2016-06-03T18:20:02.221Z,4
2016-06-03T18:21:02.208Z,0
2016-06-03T18:22:02.227Z,0
2016-06-03T18:23:02.276Z,4
2016-06-03T18:24:02.341Z,4
2016-06-03T18:25:02.359Z,4
2016-06-03T18:26:02.268Z,4
2016-06-03T18:27:02.412Z,0
2016-06-03T18:28:02.462Z,0
2016-06-03T18:29:02.480Z,4
2016-06-03T18:30:02.560Z,0
2016-06-03T18:31:02.579Z,4
2016-06-03T18:32:02.612Z,4
2016-06-03T18:33:02.662Z,4
2016-06-03T18:34:02.696Z,0
2016-06-03T18:35:02.746Z,0
2016-06-03T18:36:02.764Z,0
2016-06-03T18:37:02.798Z,0
2016-06-03T18:38:02.848Z,0
2016-06-03T18:39:02.881Z,0
2016-06-03T18:40:02.915Z,0
2016-06-03T18:41:04.653Z,0
2016-06-03T18:42:02.983Z,0
2016-06-03T18:43:03.017Z,0
2016-06-03T18:44:03.067Z,0
2016-06-03T18:45:03.117Z,0
2016-06-03T18:46:03.150Z,0
2016-06-03T18:47:03.168Z,0
2016-06-03T18:48:03.484Z,0
2016-06-03T18:49:03.237Z,4
2016-06-03T18:50:03.317Z,0
2016-06-03T18:51:03.319Z,4
2016-06-03T18:52:03.369Z,4
2016-06-03T18:53:03.404Z,4
2016-06-03T18:54:03.453Z,4
2016-06-03T18:55:03.487Z,4
2016-06-03T18:56:04.115Z,4
2016-06-03T18:57:03.554Z,4
2016-06-03T18:58:03.589Z,4
2016-06-03T18:59:03.623Z,4
2016-06-03T19:00:03.704Z,4
2016-06-03T19:01:03.707Z,4
2016-06-03T19:02:03.740Z,4
2016-06-03T19:03:03.789Z,4
2016-06-03T19:04:03.823Z,4
2016-06-03T19:05:03.857Z,0
2016-06-03T19:06:03.907Z,0
2016-06-03T19:07:03.942Z,0
2016-06-03T19:08:03.960Z,0
2016-06-03T19:09:04.009Z,0
2016-06-03T19:10:04.043Z,0
2016-06-03T19:11:03.936Z,0
2016-06-03T19:12:04.189Z,0
2016-06-03T19:13:04.020Z,0
2016-06-03T19:14:04.210Z,0
2016-06-03T19:15:04.291Z,0
2016-06-03T19:16:04.261Z,4
2016-06-03T19:17:04.328Z,4
2016-06-03T19:18:04.346Z,0
2016-06-03T19:19:04.395Z,0
2016-06-03T19:20:04.430Z,0
2016-06-03T19:21:04.464Z,0
2016-06-03T19:22:04.513Z,0
2016-06-03T19:23:04.530Z,0
2016-06-03T19:24:04.581Z,0
2016-06-03T19:25:04.630Z,0
2016-06-03T19:26:04.523Z,0
2016-06-03T19:27:06.057Z,0
2016-06-03T19:28:04.732Z,0
2016-06-03T19:29:04.765Z,0
2016-06-03T19:30:04.799Z,0
2016-06-03T19:31:04.834Z,0
2016-06-03T19:32:04.884Z,0
2016-06-03T19:33:04.918Z,0
2016-06-03T19:34:04.951Z,0
2016-06-03T19:35:04.985Z,0
2016-06-03T19:36:05.082Z,0
2016-06-03T19:37:05.068Z,0
2016-06-03T19:38:05.118Z,0
2016-06-03T19:39:05.153Z,0
2016-06-03T19:40:05.030Z,0
2016-06-03T19:41:05.236Z,0
2016-06-03T19:42:05.316Z,0
2016-06-03T19:43:05.303Z,0
2016-06-03T19:44:05.322Z,0
2016-06-03T19:45:05.355Z,0
2016-06-03T19:46:05.389Z,0
2016-06-03T19:47:05.439Z,0
2016-06-03T19:48:05.473Z,0
2016-06-03T19:49:05.351Z,0
2016-06-03T19:50:05.558Z,0
2016-06-03T19:51:05.591Z,0
2016-06-03T19:52:05.625Z,0
2016-06-03T19:53:05.658Z,0
2016-06-03T19:54:05.708Z,0
2016-06-03T19:55:05.742Z,0
2016-06-03T19:56:06.276Z,0
2016-06-03T19:57:05.826Z,0
2016-06-03T19:58:05.843Z,0
2016-06-03T19:59:05.894Z,0
2016-06-03T20:00:05.927Z,0
2016-06-03T20:01:05.962Z,0
2016-06-03T20:02:06.011Z,0
2016-06-03T20:03:06.045Z,0
2016-06-03T20:04:06.063Z,0
2016-06-03T20:05:06.113Z,0
2016-06-03T20:06:06.147Z,0
2016-06-03T20:07:06.195Z,0
2016-06-03T20:08:06.231Z,0
2016-06-03T20:09:06.264Z,0
2016-06-03T20:10:06.298Z,0
2016-06-03T20:11:06.707Z,0
2016-06-03T20:12:06.382Z,0
2016-06-03T20:13:06.415Z,0
2016-06-03T20:14:06.449Z,0
2016-06-03T20:15:06.531Z,0
2016-06-03T20:16:06.533Z,0
